Terminal Aerodrome Forecast
Issued by NWS Milwaukee/Sullivan, WI

Home | Current Version | Previous Version | Text Only | Print | Product List | Glossary On
Versions: 1 2 3 4 5 6 7 8 9 10 11 12 13 14 15 16 17 18 19 20 21 22 23 24 25 26 27 28 29 30 31 32 33 34 35 36 37 38 39 40 41 42 43 44 45 46 47 48 49 50
000
FTUS43 KMKX 212022 AAA
TAFMSN
TAF AMD
KMSN 212022Z 2120/2218 18012G18KT P6SM BKN010 OVC120
     FM212200 17009KT P6SM SCT010 BKN150
     FM220000 16006KT P6SM VCTS SCT015 BKN035CB
     FM220300 VRB03KT P6SM BKN010 BKN050
     FM221100 VRB03KT 2SM BR BKN010
     FM221400 27004KT P6SM SCT040=

USA.gov is the U.S. government's official web portal to all federal, state and local government web resources and services.